Time;durP1;ratioP1;P1;durP2;ratioP2;P2;SDS_P1;SDS_P2;PMS_P1;PMS_P2;Temp;Humidity;BMP_temperature;BMP_pressure;BME280_temperature;BME280_humidity;BME280_pressure;Samples;Min_cycle;Max_cycle;Signal;HPM_P1;HPM_P2
2021/06/06 00:01:44;;;;;;;9.63;5.03;;;;;;;16.72;65.77;100626.94;5025532;28;20439;-72
2021/06/06 00:04:16;;;;;;;10.40;4.47;;;;;;;16.74;66.15;100630.47;5025839;28;20540;-73
2021/06/06 00:06:42;;;;;;;9.45;4.40;;;;;;;16.95;65.46;100635.13;5027249;28;20217;-75
2021/06/06 00:09:12;;;;;;;12.93;4.68;;;;;;;16.91;65.01;100623.78;5024876;28;20502;-76
2021/06/06 00:11:43;;;;;;;9.45;4.20;;;;;;;16.41;65.35;100567.44;5025624;28;20029;-73
2021/06/06 00:14:13;;;;;;;7.85;4.70;;;;;;;16.92;65.32;100637.69;5011006;28;20127;-74
2021/06/06 00:16:46;;;;;;;5.72;4.78;;;;;;;16.84;65.17;100647.97;5026432;28;20109;-74
2021/06/06 00:19:13;;;;;;;13.13;5.47;;;;;;;16.72;65.75;100650.41;5027816;28;20043;-72
2021/06/06 00:21:40;;;;;;;8.15;4.80;;;;;;;16.16;65.89;100571.41;5023165;28;20056;-73
2021/06/06 00:24:09;;;;;;;8.90;5.25;;;;;;;16.42;66.15;100626.50;5025382;28;20040;-73
2021/06/06 00:26:35;;;;;;;10.38;5.55;;;;;;;16.07;66.78;100595.56;5020269;28;20118;-72
2021/06/06 00:29:01;;;;;;;7.85;4.93;;;;;;;16.12;67.69;100629.50;5018792;28;20041;-77
2021/06/06 00:31:26;;;;;;;7.30;5.30;;;;;;;15.94;67.98;100624.88;5011270;28;20025;-75
2021/06/06 00:33:52;;;;;;;8.05;4.72;;;;;;;15.74;68.99;100629.66;5023586;28;20427;-73
2021/06/06 00:36:19;;;;;;;9.10;5.05;;;;;;;15.66;69.59;100648.66;5025188;28;20047;-73
2021/06/06 00:38:45;;;;;;;8.93;4.72;;;;;;;15.52;69.76;100630.13;5019522;28;20041;-72
2021/06/06 00:41:12;;;;;;;9.15;5.00;;;;;;;14.69;69.95;100475.09;5068438;28;20051;-75
2021/06/06 00:43:39;;;;;;;7.50;5.50;;;;;;;15.64;70.31;100645.13;5068396;28;20016;-72
2021/06/06 00:46:05;;;;;;;9.38;5.30;;;;;;;15.28;71.26;100630.53;5069177;28;20033;-77
2021/06/06 00:48:31;;;;;;;12.50;5.43;;;;;;;15.37;71.31;100633.31;5052113;28;20557;-72
2021/06/06 00:51:03;;;;;;;11.38;5.22;;;;;;;15.33;71.42;100622.84;5065428;28;20107;-71
2021/06/06 00:53:44;;;;;;;10.88;5.30;;;;;;;15.15;72.59;100636.34;5068380;28;20123;-72
2021/06/06 00:56:16;;;;;;;12.55;5.30;;;;;;;15.46;72.07;100639.56;5067699;28;20039;-77
2021/06/06 00:58:44;;;;;;;10.15;4.85;;;;;;;15.65;71.32;100640.78;5018127;28;20563;-71
2021/06/06 01:01:11;;;;;;;9.77;4.88;;;;;;;15.18;71.64;100574.00;5072575;28;20504;-71
2021/06/06 01:03:38;;;;;;;9.55;5.07;;;;;;;15.55;71.19;100629.31;5073511;28;20016;-72
2021/06/06 01:06:12;;;;;;;10.82;5.07;;;;;;;15.68;71.13;100633.03;5068605;28;20071;-71
2021/06/06 01:08:39;;;;;;;9.57;5.15;;;;;;;15.64;71.16;100621.69;5071722;28;20021;-71
2021/06/06 01:11:21;;;;;;;8.02;5.25;;;;;;;15.33;71.11;100550.00;5070837;28;20099;-73
2021/06/06 01:13:51;;;;;;;10.40;4.60;;;;;;;16.04;70.27;100632.00;5069448;28;20495;-73
2021/06/06 01:16:22;;;;;;;8.02;4.93;;;;;;;16.23;69.63;100627.09;5071442;28;20054;-75
2021/06/06 01:18:50;;;;;;;9.15;5.10;;;;;;;16.16;70.25;100623.47;5069970;28;20029;-73
2021/06/06 01:21:33;;;;;;;10.55;5.22;;;;;;;16.17;71.04;100613.13;5072287;28;20390;-73
2021/06/06 01:24:22;;;;;;;10.63;5.30;;;;;;;15.60;71.96;100561.75;5070280;28;20071;-74
2021/06/06 01:26:57;;;;;;;16.40;5.20;;;;;;;15.90;72.28;100605.72;5072089;28;20025;-73
2021/06/06 01:29:45;;;;;;;12.82;6.03;;;;;;;15.87;72.33;100579.63;5073117;28;20036;-70
2021/06/06 01:32:22;;;;;;;11.55;5.35;;;;;;;16.12;71.36;100616.47;5068512;28;20033;-74
2021/06/06 01:34:54;;;;;;;11.95;6.30;;;;;;;16.04;71.65;100594.63;5052037;28;20028;-71
2021/06/06 01:37:21;;;;;;;10.60;5.60;;;;;;;16.10;71.98;100602.56;5069568;28;20048;-73
2021/06/06 01:40:06;;;;;;;7.80;4.82;;;;;;;15.36;71.96;100589.97;5053793;28;20411;-72
2021/06/06 01:42:36;;;;;;;9.35;5.07;;;;;;;15.75;70.78;100613.22;5072474;28;20027;-75
2021/06/06 01:45:08;;;;;;;12.73;5.53;;;;;;;15.64;70.21;100587.88;5072563;28;20478;-74
2021/06/06 01:47:35;;;;;;;9.57;5.22;;;;;;;15.53;70.20;100594.59;5070481;28;20068;-70
2021/06/06 01:50:14;;;;;;;8.23;5.00;;;;;;;15.55;70.62;100605.03;5071699;28;20052;-78
2021/06/06 01:52:42;;;;;;;12.60;5.47;;;;;;;15.72;70.13;100610.56;5068879;28;20027;-74
2021/06/06 01:55:11;;;;;;;11.80;5.30;;;;;;;15.61;70.34;100603.41;5071556;28;20064;-73
2021/06/06 01:57:38;;;;;;;9.00;5.13;;;;;;;15.29;70.13;100529.97;5051243;28;20021;-72
2021/06/06 02:00:12;;;;;;;7.63;5.07;;;;;;;15.65;69.95;100592.22;5071325;28;20040;-72
2021/06/06 02:02:38;;;;;;;8.38;5.20;;;;;;;15.58;68.93;100546.13;5068469;28;20091;-73
2021/06/06 02:05:16;;;;;;;7.57;4.95;;;;;;;15.97;68.32;100602.34;5071416;28;20475;-73
2021/06/06 02:07:45;;;;;;;8.43;5.03;;;;;;;15.87;68.40;100589.16;5068642;28;20017;-72
2021/06/06 02:10:56;;;;;;;6.18;4.47;;;;;;;15.78;69.05;100595.91;5070875;28;20130;-74
2021/06/06 02:13:27;;;;;;;9.05;4.53;;;;;;;15.83;67.54;100598.66;4991995;28;20030;-75
2021/06/06 02:16:00;;;;;;;8.95;4.70;;;;;;;15.85;66.61;100586.53;4975618;28;20053;-71
2021/06/06 02:18:28;;;;;;;8.82;4.63;;;;;;;15.07;66.80;100453.31;4991794;28;20042;-75
2021/06/06 02:20:54;;;;;;;8.77;4.70;;;;;;;15.88;67.22;100586.56;4992000;28;20604;-72
2021/06/06 02:23:29;;;;;;;11.18;5.60;;;;;;;15.87;67.47;100597.84;4991221;28;20068;-71
2021/06/06 02:26:10;;;;;;;9.63;5.15;;;;;;;15.83;67.67;100591.69;4975353;28;20497;-76
2021/06/06 02:28:47;;;;;;;6.85;4.50;;;;;;;15.91;66.37;100597.03;4991577;28;20235;-72
2021/06/06 02:31:26;;;;;;;6.95;4.40;;;;;;;15.96;65.68;100597.13;4991481;28;20062;-72
2021/06/06 02:34:11;;;;;;;6.70;4.32;;;;;;;15.96;66.11;100599.72;4991327;28;20054;-73
2021/06/06 02:36:39;;;;;;;8.77;4.60;;;;;;;15.41;66.45;100532.81;4989904;28;20042;-74
2021/06/06 02:39:14;;;;;;;6.43;4.65;;;;;;;15.71;66.84;100593.19;4994296;28;20552;-76
2021/06/06 02:41:59;;;;;;;7.22;4.50;;;;;;;15.66;67.19;100600.91;4992170;28;20122;-74
2021/06/06 02:44:36;;;;;;;8.02;4.57;;;;;;;15.67;66.01;100606.13;5041970;28;20040;-74
2021/06/06 02:47:04;;;;;;;7.20;4.63;;;;;;;15.71;65.35;100601.84;5052346;28;20032;-76
2021/06/06 02:49:35;;;;;;;5.78;4.35;;;;;;;15.51;65.45;100578.06;5057734;28;20087;-73
2021/06/06 02:52:04;;;;;;;7.47;4.32;;;;;;;15.40;64.96;100590.00;5062555;28;20028;-71
2021/06/06 02:54:41;;;;;;;12.15;5.15;;;;;;;15.39;65.22;100591.75;5066098;28;20021;-71
2021/06/06 02:57:10;;;;;;;7.75;4.28;;;;;;;15.28;64.98;100581.13;5062273;28;20060;-75
2021/06/06 02:59:45;;;;;;;6.90;4.47;;;;;;;15.47;65.40;100594.50;5046480;28;20024;-72
2021/06/06 03:02:17;;;;;;;8.38;5.22;;;;;;;15.11;65.52;100528.78;5063082;28;20103;-72
2021/06/06 03:04:50;;;;;;;9.65;4.97;;;;;;;15.12;65.71;100534.88;5065854;28;20489;-73
2021/06/06 03:07:23;;;;;;;10.80;4.80;;;;;;;15.20;66.09;100574.88;5061813;28;20028;-75
2021/06/06 03:09:50;;;;;;;8.32;5.00;;;;;;;14.94;67.31;100569.16;5047863;28;20032;-72
2021/06/06 03:12:18;;;;;;;11.77;5.00;;;;;;;14.93;68.00;100575.19;5065784;28;20020;-73
2021/06/06 03:14:46;;;;;;;7.03;5.32;;;;;;;14.90;68.16;100572.56;5071091;28;20436;-73
2021/06/06 03:17:16;;;;;;;8.23;5.55;;;;;;;15.00;68.52;100583.19;5053624;28;20024;-74
2021/06/06 03:19:46;;;;;;;9.88;5.70;;;;;;;14.53;68.68;100518.94;5069301;28;20035;-78
2021/06/06 03:22:17;;;;;;;9.38;5.13;;;;;;;14.58;69.29;100524.22;5068514;28;20551;-71
2021/06/06 03:24:48;;;;;;;11.00;5.70;;;;;;;14.87;69.81;100565.56;5051579;28;20025;-79
2021/06/06 03:27:16;;;;;;;11.45;6.47;;;;;;;14.90;70.41;100590.75;5066663;28;20024;-72
2021/06/06 03:30:08;;;;;;;10.25;6.70;;;;;;;14.84;70.87;100589.78;5026774;28;20488;-78
2021/06/06 03:32:36;;;;;;;9.02;6.72;;;;;;;14.35;71.33;100529.78;4967051;28;20038;-73
2021/06/06 03:35:05;;;;;;;10.32;6.68;;;;;;;14.75;71.79;100601.69;4967960;28;20047;-72
2021/06/06 03:37:30;;;;;;;10.23;7.05;;;;;;;14.79;71.60;100593.13;4955193;28;20516;-74
2021/06/06 03:39:56;;;;;;;8.00;6.40;;;;;;;14.91;70.86;100597.72;4967865;28;20051;-73
2021/06/06 03:42:23;;;;;;;10.75;6.35;;;;;;;14.90;70.97;100596.81;4965027;28;20027;-73
2021/06/06 03:44:49;;;;;;;8.65;6.30;;;;;;;14.74;70.60;100567.00;4949920;29;20055;-75
2021/06/06 03:47:15;;;;;;;7.40;5.95;;;;;;;14.93;70.91;100586.50;4950618;29;20103;-72
2021/06/06 03:49:40;;;;;;;12.48;6.63;;;;;;;14.52;71.01;100532.75;4950760;29;20122;-74
2021/06/06 03:52:06;;;;;;;9.73;7.10;;;;;;;14.93;71.15;100593.41;4950931;29;20066;-76
2021/06/06 03:54:33;;;;;;;11.25;7.05;;;;;;;14.89;71.30;100584.66;4968932;28;20473;-74
2021/06/06 03:56:58;;;;;;;10.55;7.00;;;;;;;14.98;70.92;100584.88;4952859;28;20039;-77
2021/06/06 03:59:24;;;;;;;10.85;7.07;;;;;;;15.12;70.97;100592.06;4951821;28;20085;-76
2021/06/06 04:01:51;;;;;;;9.50;7.38;;;;;;;15.04;71.22;100599.69;5007288;28;20030;-76
2021/06/06 04:04:16;;;;;;;9.32;6.93;;;;;;;14.99;71.71;100583.13;4990100;28;20038;-75
2021/06/06 04:06:42;;;;;;;11.02;7.38;;;;;;;15.13;71.77;100592.09;4988905;28;21960;-77
2021/06/06 04:09:08;;;;;;;10.93;7.00;;;;;;;15.24;71.55;100592.31;5000256;28;20036;-74
2021/06/06 04:11:36;;;;;;;9.38;7.10;;;;;;;15.40;70.95;100597.81;5056687;28;20017;-78
2021/06/06 04:14:02;;;;;;;9.18;7.50;;;;;;;15.25;71.99;100572.38;5071266;28;20031;-74
2021/06/06 04:16:28;;;;;;;11.05;7.43;;;;;;;15.45;71.35;100576.25;5071079;28;20036;-76
2021/06/06 04:18:54;;;;;;;11.10;7.35;;;;;;;15.58;70.63;100579.09;5070840;28;20020;-76
2021/06/06 04:21:23;;;;;;;11.80;8.07;;;;;;;15.57;71.43;100588.59;5053217;28;20035;-74
2021/06/06 04:23:48;;;;;;;11.50;8.27;;;;;;;15.07;71.95;100519.16;5071298;28;20099;-76
2021/06/06 04:26:14;;;;;;;9.85;8.85;;;;;;;15.31;73.06;100568.16;5070834;28;20554;-75
2021/06/06 04:28:40;;;;;;;10.48;8.95;;;;;;;15.20;74.59;100562.78;5071163;28;20035;-73
2021/06/06 04:31:07;;;;;;;10.90;7.88;;;;;;;15.25;74.30;100577.59;5071219;28;20017;-76
2021/06/06 04:33:33;;;;;;;10.45;8.63;;;;;;;15.23;73.91;100569.75;5071129;28;20182;-76
2021/06/06 04:35:58;;;;;;;13.93;7.88;;;;;;;15.06;73.46;100527.81;5071536;28;20510;-76
2021/06/06 04:38:27;;;;;;;8.55;7.25;;;;;;;15.24;73.48;100584.53;5070776;28;20398;-74
2021/06/06 04:40:55;;;;;;;11.10;7.40;;;;;;;15.15;73.68;100568.72;5052482;28;20052;-75
2021/06/06 04:43:21;;;;;;;10.00;8.20;;;;;;;15.16;75.06;100584.34;5049640;28;20501;-75
2021/06/06 04:45:47;;;;;;;10.90;8.10;;;;;;;15.01;76.30;100586.66;5054061;28;20530;-80
2021/06/06 04:48:21;;;;;;;7.80;7.00;;;;;;;15.06;75.92;100579.81;5071203;28;20111;-74
2021/06/06 04:50:47;;;;;;;9.38;7.50;;;;;;;15.12;76.04;100577.34;5070706;28;20032;-74
2021/06/06 04:53:13;;;;;;;10.63;7.70;;;;;;;15.23;75.16;100574.06;5070502;28;20112;-77
2021/06/06 04:55:39;;;;;;;11.85;8.13;;;;;;;15.16;75.31;100567.88;5070898;28;20033;-74
2021/06/06 04:58:05;;;;;;;11.05;8.50;;;;;;;15.26;74.49;100568.94;5071170;28;20036;-77
2021/06/06 05:00:35;;;;;;;11.30;8.63;;;;;;;15.42;74.48;100570.97;5053954;28;20111;-76
2021/06/06 05:03:01;;;;;;;11.75;8.63;;;;;;;15.48;74.56;100586.72;5070511;28;20050;-75
2021/06/06 05:05:26;;;;;;;11.93;8.48;;;;;;;15.58;74.67;100581.69;5070718;28;20050;-79
2021/06/06 05:07:55;;;;;;;11.18;8.38;;;;;;;15.70;74.39;100576.66;5070134;28;20044;-76
2021/06/06 05:10:22;;;;;;;12.82;9.13;;;;;;;15.79;74.53;100586.41;5052685;28;20398;-76
2021/06/06 05:12:48;;;;;;;12.20;9.70;;;;;;;15.65;74.39;100583.53;5060689;28;20123;-81
2021/06/06 05:18:00;;;;;;;11.88;9.65;;;;;;;15.86;74.38;100572.66;5070424;28;20150;-82
2021/06/06 05:20:31;;;;;;;11.63;9.07;;;;;;;15.96;74.77;100585.00;5052371;28;20505;-76
2021/06/06 05:22:57;;;;;;;28.98;10.10;;;;;;;16.00;74.96;100581.56;5052600;28;20040;-76
2021/06/06 05:25:23;;;;;;;12.57;10.02;;;;;;;16.10;74.15;100584.31;5052577;28;20033;-80
2021/06/06 05:27:49;;;;;;;16.63;10.80;;;;;;;16.14;74.63;100578.31;5070694;28;20035;-74
2021/06/06 05:30:21;;;;;;;11.50;9.55;;;;;;;16.02;74.04;100576.38;5052478;28;20032;-81
2021/06/06 05:32:49;;;;;;;12.95;9.70;;;;;;;16.03;74.66;100578.16;5069968;28;20024;-74
2021/06/06 05:35:14;;;;;;;16.48;10.48;;;;;;;16.29;73.20;100572.47;5070734;28;20036;-75
2021/06/06 05:37:40;;;;;;;11.48;8.88;;;;;;;16.57;71.57;100584.16;5070313;28;20099;-76
2021/06/06 05:40:06;;;;;;;12.88;9.18;;;;;;;16.67;71.41;100590.38;5052441;28;20052;-75
2021/06/06 05:42:32;;;;;;;11.80;9.13;;;;;;;16.73;71.56;100594.81;5070403;28;20024;-75
2021/06/06 05:44:57;;;;;;;9.95;8.90;;;;;;;16.78;71.93;100593.16;5072019;28;20037;-75
2021/06/06 05:47:23;;;;;;;9.90;8.48;;;;;;;16.89;70.87;100581.13;5073069;28;20107;-75
2021/06/06 05:49:48;;;;;;;9.18;8.23;;;;;;;16.91;70.23;100575.91;5074293;28;20059;-75
2021/06/06 05:52:14;;;;;;;10.40;8.15;;;;;;;16.97;71.39;100584.75;5073933;28;20024;-75
2021/06/06 05:54:39;;;;;;;12.18;8.05;;;;;;;16.96;70.60;100566.47;5055854;28;20021;-79
2021/06/06 05:57:06;;;;;;;8.75;7.47;;;;;;;17.16;70.20;100589.28;5055649;28;20020;-74
2021/06/06 05:59:32;;;;;;;9.82;8.30;;;;;;;17.30;69.54;100579.91;5073439;28;20040;-74
2021/06/06 06:01:58;;;;;;;10.68;7.65;;;;;;;17.43;68.94;100600.06;5072284;28;20028;-81
2021/06/06 06:04:23;;;;;;;10.45;7.43;;;;;;;17.47;67.99;100574.88;5073472;28;20376;-76
2021/06/06 06:06:49;;;;;;;9.85;7.55;;;;;;;17.81;67.65;100593.47;5055800;28;20028;-76
2021/06/06 06:09:14;;;;;;;10.98;7.07;;;;;;;17.52;67.95;100565.34;5073291;28;20024;-72
2021/06/06 06:11:40;;;;;;;7.22;6.50;;;;;;;17.55;68.59;100586.25;5073454;28;20103;-79
2021/06/06 06:14:05;;;;;;;10.70;6.80;;;;;;;17.48;69.11;100601.84;5045147;28;20025;-75
2021/06/06 06:16:36;;;;;;;12.20;7.35;;;;;;;17.57;69.61;100605.44;5060398;28;20074;-71
2021/06/06 06:19:03;;;;;;;9.10;6.57;;;;;;;17.56;70.39;100601.06;5039242;28;20040;-73
2021/06/06 06:21:31;;;;;;;8.20;6.65;;;;;;;17.76;69.21;100609.09;5060714;28;20017;-71
2021/06/06 06:23:57;;;;;;;8.75;6.30;;;;;;;17.56;68.79;100556.69;5057127;28;20084;-71
2021/06/06 06:26:23;;;;;;;8.95;6.40;;;;;;;18.12;67.37;100593.78;5059468;28;20482;-73
2021/06/06 06:28:49;;;;;;;8.88;6.20;;;;;;;18.36;66.75;100600.91;5057717;28;20103;-71
2021/06/06 06:31:16;;;;;;;8.70;5.82;;;;;;;18.37;67.21;100604.41;5057286;28;20108;-73
2021/06/06 06:33:42;;;;;;;7.65;5.32;;;;;;;18.47;64.93;100587.91;5059473;28;20021;-72
2021/06/06 06:36:10;;;;;;;14.02;6.05;;;;;;;18.73;64.29;100589.81;5056853;28;20437;-72
2021/06/06 06:38:35;;;;;;;8.10;6.10;;;;;;;18.74;65.28;100571.50;5060109;28;20479;-73
2021/06/06 06:41:02;;;;;;;12.27;6.20;;;;;;;18.73;66.22;100568.91;5046015;28;20046;-73
2021/06/06 06:43:27;;;;;;;7.07;5.75;;;;;;;18.66;67.97;100564.50;5054728;28;20433;-75
2021/06/06 06:45:56;;;;;;;9.52;5.93;;;;;;;18.72;66.05;100577.59;5056434;28;20028;-72
2021/06/06 06:48:25;;;;;;;7.47;6.07;;;;;;;18.82;65.54;100574.16;5058005;28;20103;-76
2021/06/06 06:50:52;;;;;;;6.20;5.60;;;;;;;18.56;66.33;100535.66;5058057;28;20048;-72
2021/06/06 06:53:19;;;;;;;7.82;5.55;;;;;;;18.74;67.49;100553.19;5056690;28;20048;-75
2021/06/06 06:55:45;;;;;;;8.30;5.85;;;;;;;18.56;66.33;100522.59;5057960;28;20108;-76
2021/06/06 06:58:11;;;;;;;6.80;6.03;;;;;;;18.98;65.28;100563.78;5056175;28;20060;-75
2021/06/06 07:00:43;;;;;;;10.57;5.53;;;;;;;18.69;64.68;100505.25;5059758;28;20020;-74
2021/06/06 07:03:12;;;;;;;6.45;5.75;;;;;;;19.26;63.87;100567.38;5061967;28;20028;-72
2021/06/06 07:05:39;;;;;;;5.72;5.05;;;;;;;19.22;64.69;100550.78;5048771;28;20406;-73
2021/06/06 07:08:07;;;;;;;7.18;5.25;;;;;;;19.32;64.34;100559.53;5050766;28;20044;-75
2021/06/06 07:10:35;;;;;;;6.60;5.80;;;;;;;19.32;64.77;100543.81;5053137;28;20024;-71
2021/06/06 07:13:01;;;;;;;7.75;5.45;;;;;;;19.52;63.30;100548.22;5046918;28;20045;-71
2021/06/06 07:15:26;;;;;;;10.00;5.72;;;;;;;19.60;65.19;100553.47;5046655;28;20043;-73
2021/06/06 07:17:52;;;;;;;9.93;6.38;;;;;;;19.54;62.78;100543.88;5046375;28;20045;-72
2021/06/06 07:20:21;;;;;;;7.85;5.65;;;;;;;18.94;63.89;100416.41;5047107;28;20418;-77
2021/06/06 07:22:47;;;;;;;5.97;5.25;;;;;;;19.62;65.24;100533.41;5048352;28;20032;-72
2021/06/06 07:25:15;;;;;;;9.18;5.20;;;;;;;19.76;63.49;100549.97;5043429;28;20038;-75
2021/06/06 07:27:44;;;;;;;6.88;5.20;;;;;;;20.00;62.75;100536.06;5046828;28;20025;-71
2021/06/06 07:30:13;;;;;;;7.25;5.30;;;;;;;20.23;60.66;100529.91;5045279;28;20547;-72
2021/06/06 07:32:39;;;;;;;7.18;5.20;;;;;;;19.99;60.01;100473.16;5047655;28;20510;-71
2021/06/06 07:35:06;;;;;;;5.93;4.95;;;;;;;19.92;60.21;100419.03;5047282;28;20116;-70
2021/06/06 07:37:32;;;;;;;7.70;5.40;;;;;;;20.62;62.08;100524.53;5048217;28;20384;-73
2021/06/06 07:39:58;;;;;;;5.82;5.22;;;;;;;20.44;60.59;100515.00;5031261;28;20564;-71
2021/06/06 07:42:24;;;;;;;7.18;5.38;;;;;;;20.56;61.94;100522.84;5062243;28;20124;-72
2021/06/06 07:44:49;;;;;;;7.32;5.30;;;;;;;20.90;58.95;100525.34;5068457;28;20025;-74
2021/06/06 07:47:15;;;;;;;7.07;4.68;;;;;;;21.04;59.39;100530.50;5068436;28;20470;-73
2021/06/06 07:49:41;;;;;;;8.40;5.28;;;;;;;21.22;58.04;100544.41;5065987;28;20028;-75
2021/06/06 07:52:08;;;;;;;6.25;4.53;;;;;;;21.16;57.73;100543.56;5069478;28;20546;-77
2021/06/06 07:54:34;;;;;;;7.55;5.05;;;;;;;21.16;57.37;100514.69;5054095;28;20495;-73
2021/06/06 07:57:01;;;;;;;5.43;4.57;;;;;;;21.47;57.52;100532.88;5067844;28;20406;-78
2021/06/06 07:59:27;;;;;;;5.72;4.40;;;;;;;21.65;56.30;100537.13;5068673;28;20024;-74
2021/06/06 08:01:52;;;;;;;7.68;4.90;;;;;;;21.64;56.64;100531.91;5066658;28;20545;-73
2021/06/06 08:04:18;;;;;;;7.93;4.60;;;;;;;21.82;55.39;100533.53;5038679;28;20038;-75
2021/06/06 08:06:44;;;;;;;5.72;4.40;;;;;;;21.90;54.44;100533.47;5047380;28;20024;-73
2021/06/06 08:09:10;;;;;;;7.72;4.90;;;;;;;21.42;55.20;100427.00;5053543;28;20024;-75
2021/06/06 08:11:37;;;;;;;5.80;4.90;;;;;;;21.95;55.21;100527.25;5055465;28;20029;-75
2021/06/06 08:14:04;;;;;;;6.40;4.65;;;;;;;21.99;56.24;100530.72;5051780;28;20036;-75
2021/06/06 08:16:30;;;;;;;6.10;4.47;;;;;;;21.97;54.53;100516.75;5068794;28;20035;-73
2021/06/06 08:18:56;;;;;;;6.45;4.47;;;;;;;22.09;54.13;100500.84;5066633;28;20024;-77
2021/06/06 08:21:26;;;;;;;6.13;4.50;;;;;;;22.45;54.63;100519.78;5069131;28;20463;-74
2021/06/06 08:23:52;;;;;;;7.32;4.80;;;;;;;22.62;55.47;100530.09;5068699;28;20111;-74
2021/06/06 08:26:20;;;;;;;8.63;4.97;;;;;;;22.64;54.54;100508.16;5069800;28;20066;-78
2021/06/06 08:28:47;;;;;;;6.68;4.97;;;;;;;22.84;59.07;100516.69;5069398;28;20470;-73
2021/06/06 08:31:17;;;;;;;5.93;4.50;;;;;;;22.91;57.10;100525.38;5067524;28;20482;-76
2021/06/06 08:33:43;;;;;;;6.63;4.80;;;;;;;22.96;54.94;100527.94;5047532;28;20401;-75
2021/06/06 08:36:13;;;;;;;9.32;5.20;;;;;;;22.84;60.25;100487.72;5068385;28;20090;-77
2021/06/06 08:38:38;;;;;;;;;;;;;;;23.08;55.89;100517.25;5067234;28;20482;-74
2021/06/06 08:41:14;;;;;;;7.15;4.30;;;;;;;23.06;54.90;100519.03;5069349;28;19917;-77
2021/06/06 08:43:47;;;;;;;8.13;4.55;;;;;;;23.20;57.23;100518.84;5068495;28;20027;-77
2021/06/06 08:46:15;;;;;;;6.07;4.80;;;;;;;23.04;59.19;100490.09;5070296;28;20028;-73
2021/06/06 08:48:41;;;;;;;6.90;3.92;;;;;;;23.24;56.58;100502.09;5048618;28;20028;-72
2021/06/06 08:51:25;;;;;;;9.02;4.18;;;;;;;23.45;53.41;100505.31;5049342;28;20034;-72
2021/06/06 08:54:27;;;;;;;10.23;4.38;;;;;;;23.70;51.72;100511.03;5069720;28;20474;-73
2021/06/06 08:57:09;;;;;;;5.80;4.07;;;;;;;23.55;50.18;100460.34;5068487;28;20493;-75
2021/06/06 08:59:42;;;;;;;6.35;3.50;;;;;;;23.99;47.31;100513.22;5065727;28;20025;-74
2021/06/06 09:02:17;;;;;;;4.53;3.50;;;;;;;24.17;47.33;100522.53;5066232;28;20020;-72
2021/06/06 09:04:43;;;;;;;6.35;3.83;;;;;;;24.23;48.53;100522.44;5067321;28;20035;-77
2021/06/06 09:07:15;;;;;;;4.65;3.45;;;;;;;24.18;49.55;100519.00;5068495;28;20437;-76
2021/06/06 09:09:46;;;;;;;9.18;3.67;;;;;;;24.21;46.68;100508.41;5067488;28;20033;-74
2021/06/06 09:12:17;;;;;;;5.15;3.53;;;;;;;23.95;46.14;100484.28;5050903;28;20111;-75
2021/06/06 09:14:43;;;;;;;6.22;3.40;;;;;;;24.27;47.51;100507.41;5066968;28;20064;-73
2021/06/06 09:17:13;;;;;;;5.65;3.40;;;;;;;24.49;48.88;100510.50;5067514;28;20031;-75
2021/06/06 09:19:56;;;;;;;5.35;3.20;;;;;;;24.48;45.57;100492.94;5068725;28;20051;-75
2021/06/06 09:22:37;;;;;;;5.47;3.35;;;;;;;24.48;44.37;100469.19;5071264;28;20104;-74
2021/06/06 09:25:29;;;;;;;4.85;3.60;;;;;;;24.65;44.62;100497.91;5052727;28;20023;-76
2021/06/06 09:28:09;;;;;;;5.68;3.70;;;;;;;24.67;44.12;100479.38;4991667;28;20042;-78
2021/06/06 09:30:36;;;;;;;7.50;3.40;;;;;;;24.47;44.02;100424.34;4991729;28;20042;-75
2021/06/06 09:33:10;;;;;;;7.00;3.45;;;;;;;24.97;45.27;100469.94;4991701;28;20038;-74
2021/06/06 09:36:04;;;;;;;4.63;3.03;;;;;;;24.88;43.59;100454.28;4991739;28;20118;-78
2021/06/06 09:38:29;;;;;;;7.32;3.28;;;;;;;25.09;41.39;100481.97;4971731;28;20553;-73
2021/06/06 09:41:07;;;;;;;5.55;3.03;;;;;;;25.17;42.30;100489.72;4971431;28;20137;-73
2021/06/06 09:43:33;;;;;;;6.97;2.85;;;;;;;25.13;40.35;100456.34;4971522;28;20034;-72
2021/06/06 09:46:51;;;;;;;5.85;3.00;;;;;;;25.50;39.34;100481.91;4971748;28;20134;-72
2021/06/06 09:49:25;;;;;;;5.85;2.70;;;;;;;25.78;42.12;100467.97;4858078;29;20050;-76
2021/06/06 09:51:52;;;;;;;4.82;3.22;;;;;;;25.84;43.35;100462.53;4858183;29;20073;-76
2021/06/06 09:54:28;;;;;;;3.50;3.03;;;;;;;25.96;40.87;100464.84;4858197;29;20041;-73
2021/06/06 09:56:58;;;;;;;5.18;3.05;;;;;;;25.86;39.75;100415.78;4857951;29;20080;-73
2021/06/06 09:59:26;;;;;;;;;;;;;;;26.19;39.41;100449.28;4858564;29;20165;-74
2021/06/06 10:02:05;;;;;;;6.95;3.17;;;;;;;26.48;43.24;100445.78;4857821;29;19923;-75
2021/06/06 10:04:36;;;;;;;5.88;3.05;;;;;;;25.98;39.01;100383.69;4877993;29;20432;-75
2021/06/06 10:07:24;;;;;;;6.20;2.88;;;;;;;26.43;38.93;100426.53;4914316;29;20040;-75
2021/06/06 10:09:53;;;;;;;5.68;2.90;;;;;;;26.44;37.28;100428.25;4912668;29;20032;-75
2021/06/06 10:12:32;;;;;;;3.80;2.75;;;;;;;26.37;36.52;100432.00;4911267;29;20050;-78
2021/06/06 10:15:16;;;;;;;3.93;3.17;;;;;;;26.70;36.66;100422.19;4926439;29;20481;-74
2021/06/06 10:17:51;;;;;;;5.50;2.88;;;;;;;26.90;38.75;100418.94;4950618;29;20031;-75
2021/06/06 10:20:17;;;;;;;5.88;3.50;;;;;;;26.81;36.81;100421.88;4935254;28;20067;-76
2021/06/06 10:22:51;;;;;;;4.43;3.20;;;;;;;26.62;36.82;100417.13;4932646;29;20082;-76
2021/06/06 10:25:24;;;;;;;8.02;3.10;;;;;;;26.70;36.80;100405.44;4949075;28;20040;-75
2021/06/06 10:27:57;;;;;;;6.28;3.08;;;;;;;27.06;36.17;100411.34;5031647;28;20156;-76
2021/06/06 10:31:01;;;;;;;4.57;2.80;;;;;;;27.34;36.01;100410.47;5031754;28;20033;-76
2021/06/06 10:33:35;;;;;;;5.25;3.13;;;;;;;27.67;33.54;100407.56;4953013;28;20034;-80
2021/06/06 10:36:03;;;;;;;4.45;3.03;;;;;;;27.84;31.47;100409.63;4952474;28;20028;-73
2021/06/06 10:38:31;;;;;;;3.83;2.55;;;;;;;27.80;32.52;100394.72;4954517;28;20050;-75
2021/06/06 10:41:08;;;;;;;5.15;2.58;;;;;;;27.59;30.97;100367.19;4954937;28;20063;-75
2021/06/06 10:43:54;;;;;;;6.55;2.67;;;;;;;28.07;29.42;100405.31;4936584;28;20549;-74
2021/06/06 10:46:41;;;;;;;4.20;2.30;;;;;;;28.30;29.80;100407.09;4951848;28;20058;-76
2021/06/06 10:49:36;;;;;;;6.53;2.60;;;;;;;28.40;30.04;100408.47;4950569;28;20039;-73
2021/06/06 10:52:05;;;;;;;4.60;2.67;;;;;;;28.54;30.58;100405.28;4933996;28;20030;-75
2021/06/06 10:54:41;;;;;;;7.28;2.85;;;;;;;28.55;32.33;100395.53;4982684;28;20508;-80
2021/06/06 10:57:12;;;;;;;5.13;2.72;;;;;;;28.33;31.92;100342.41;4990267;28;20085;-75
2021/06/06 10:59:46;;;;;;;3.53;2.35;;;;;;;28.78;32.25;100389.31;4986898;28;20045;-77
2021/06/06 11:02:30;;;;;;;7.85;3.35;;;;;;;28.49;30.25;100407.25;4990336;28;20033;-75
2021/06/06 11:04:59;;;;;;;2.83;2.20;;;;;;;28.27;32.31;100393.09;4991146;28;20176;-78
2021/06/06 11:07:30;;;;;;;6.97;2.70;;;;;;;28.44;29.76;100385.34;4973460;28;20485;-78
2021/06/06 11:10:08;;;;;;;3.13;2.33;;;;;;;28.91;27.75;100380.84;5030885;28;20043;-78
2021/06/06 11:12:37;;;;;;;5.97;2.58;;;;;;;29.12;28.46;100369.31;5062795;28;20508;-74
2021/06/06 11:15:22;;;;;;;3.58;2.47;;;;;;;29.30;30.98;100366.88;5054063;28;20474;-75
2021/06/06 11:17:49;;;;;;;3.25;2.40;;;;;;;29.13;28.16;100371.06;5070576;28;20035;-77
2021/06/06 11:20:15;;;;;;;3.08;2.40;;;;;;;28.74;27.34;100374.44;5071892;28;20450;-76
2021/06/06 11:22:44;;;;;;;4.57;2.15;;;;;;;28.87;30.36;100348.22;5072126;28;20066;-76
2021/06/06 11:25:38;;;;;;;5.10;2.33;;;;;;;29.43;28.09;100346.78;5055306;28;20024;-76
2021/06/06 11:28:25;;;;;;;5.75;2.65;;;;;;;29.73;33.05;100343.69;5075170;28;20032;-74
2021/06/06 11:30:53;;;;;;;5.18;2.58;;;;;;;30.09;29.76;100345.63;5053677;28;20028;-76
2021/06/06 11:33:45;;;;;;;5.20;2.40;;;;;;;29.90;28.29;100318.16;5053579;28;20523;-78
2021/06/06 11:36:12;;;;;;;4.18;2.25;;;;;;;29.63;30.16;100298.00;5076060;28;20024;-77
2021/06/06 11:38:46;;;;;;;6.60;2.42;;;;;;;29.73;30.76;100325.06;5071497;28;20024;-76
2021/06/06 11:41:24;;;;;;;3.20;2.25;;;;;;;29.96;29.36;100345.34;5073506;28;20143;-76
2021/06/06 11:43:54;;;;;;;5.80;2.42;;;;;;;30.04;30.18;100342.31;5053026;28;20091;-74